sensor_id;sensor_type;location;lat;lon;timestamp;temperature;humidity
4985;DHT22;2509;49.902;8.600;2023-03-12T00:00:22;0.10;99.90
4985;DHT22;2509;49.902;8.600;2023-03-12T00:03:24;0.20;99.90
4985;DHT22;2509;49.902;8.600;2023-03-12T00:06:26;0.20;99.90
4985;DHT22;2509;49.902;8.600;2023-03-12T00:09:28;0.30;99.90
4985;DHT22;2509;49.902;8.600;2023-03-12T00:12:30;0.30;99.90
4985;DHT22;2509;49.902;8.600;2023-03-12T00:15:35;0.30;99.90
4985;DHT22;2509;49.902;8.600;2023-03-12T00:18:37;0.20;99.90
4985;DHT22;2509;49.902;8.600;2023-03-12T00:21:39;0.30;99.90
4985;DHT22;2509;49.902;8.600;2023-03-12T00:24:40;0.30;99.90
4985;DHT22;2509;49.902;8.600;2023-03-12T00:27:43;0.30;99.90
4985;DHT22;2509;49.902;8.600;2023-03-12T00:30:46;0.30;99.90
4985;DHT22;2509;49.902;8.600;2023-03-12T00:33:48;0.30;99.90
4985;DHT22;2509;49.902;8.600;2023-03-12T00:36:50;0.20;99.90
4985;DHT22;2509;49.902;8.600;2023-03-12T00:39:51;0.20;99.90
4985;DHT22;2509;49.902;8.600;2023-03-12T00:42:53;0.20;99.90
4985;DHT22;2509;49.902;8.600;2023-03-12T00:45:57;0.10;99.90
4985;DHT22;2509;49.902;8.600;2023-03-12T00:48:58;0.20;99.90
4985;DHT22;2509;49.902;8.600;2023-03-12T00:52:00;0.20;99.90
4985;DHT22;2509;49.902;8.600;2023-03-12T00:55:02;0.20;99.90
4985;DHT22;2509;49.902;8.600;2023-03-12T00:58:04;0.30;99.90
4985;DHT22;2509;49.902;8.600;2023-03-12T01:01:08;0.30;99.90
4985;DHT22;2509;49.902;8.600;2023-03-12T01:04:10;0.30;99.90
4985;DHT22;2509;49.902;8.600;2023-03-12T01:07:12;0.40;99.90
4985;DHT22;2509;49.902;8.600;2023-03-12T01:10:15;0.40;99.90
4985;DHT22;2509;49.902;8.600;2023-03-12T01:13:17;0.40;99.90
4985;DHT22;2509;49.902;8.600;2023-03-12T01:16:20;0.40;99.90
4985;DHT22;2509;49.902;8.600;2023-03-12T01:19:27;0.40;99.90
4985;DHT22;2509;49.902;8.600;2023-03-12T01:22:29;0.40;99.90
4985;DHT22;2509;49.902;8.600;2023-03-12T01:25:31;0.40;99.90
4985;DHT22;2509;49.902;8.600;2023-03-12T01:28:33;0.40;99.90
4985;DHT22;2509;49.902;8.600;2023-03-12T01:31:36;0.40;99.90
4985;DHT22;2509;49.902;8.600;2023-03-12T01:34:38;0.30;99.90
4985;DHT22;2509;49.902;8.600;2023-03-12T01:37:40;0.30;99.90
4985;DHT22;2509;49.902;8.600;2023-03-12T01:40:42;0.30;99.90
4985;DHT22;2509;49.902;8.600;2023-03-12T01:43:45;0.30;99.90
4985;DHT22;2509;49.902;8.600;2023-03-12T01:46:48;0.30;99.90
4985;DHT22;2509;49.902;8.600;2023-03-12T01:49:52;0.30;99.90
4985;DHT22;2509;49.902;8.600;2023-03-12T01:52:54;0.30;99.90
4985;DHT22;2509;49.902;8.600;2023-03-12T01:55:57;0.30;99.90
4985;DHT22;2509;49.902;8.600;2023-03-12T01:59:02;0.30;99.90
4985;DHT22;2509;49.902;8.600;2023-03-12T02:02:07;0.30;99.90
4985;DHT22;2509;49.902;8.600;2023-03-12T02:05:14;0.40;99.90
4985;DHT22;2509;49.902;8.600;2023-03-12T02:08:17;0.40;99.90
4985;DHT22;2509;49.902;8.600;2023-03-12T02:11:19;0.40;99.90
4985;DHT22;2509;49.902;8.600;2023-03-12T02:14:21;0.40;99.90
4985;DHT22;2509;49.902;8.600;2023-03-12T02:17:24;0.40;99.90
4985;DHT22;2509;49.902;8.600;2023-03-12T02:20:32;0.40;99.90
4985;DHT22;2509;49.902;8.600;2023-03-12T02:23:40;0.50;99.90
4985;DHT22;2509;49.902;8.600;2023-03-12T02:26:45;0.50;99.90
4985;DHT22;2509;49.902;8.600;2023-03-12T02:29:47;0.50;99.90
4985;DHT22;2509;49.902;8.600;2023-03-12T02:32:50;0.50;99.90
4985;DHT22;2509;49.902;8.600;2023-03-12T02:35:53;0.50;99.90
4985;DHT22;2509;49.902;8.600;2023-03-12T02:38:55;0.60;99.90
4985;DHT22;2509;49.902;8.600;2023-03-12T02:41:59;0.60;99.90
4985;DHT22;2509;49.902;8.600;2023-03-12T02:45:01;0.50;99.90
4985;DHT22;2509;49.902;8.600;2023-03-12T02:48:07;0.50;99.90
4985;DHT22;2509;49.902;8.600;2023-03-12T02:51:09;0.50;99.90
4985;DHT22;2509;49.902;8.600;2023-03-12T02:54:13;0.60;99.90
4985;DHT22;2509;49.902;8.600;2023-03-12T02:57:17;0.60;99.90
4985;DHT22;2509;49.902;8.600;2023-03-12T03:00:19;0.60;99.90
4985;DHT22;2509;49.902;8.600;2023-03-12T03:03:21;0.50;99.90
4985;DHT22;2509;49.902;8.600;2023-03-12T03:06:23;0.50;99.90
4985;DHT22;2509;49.902;8.600;2023-03-12T03:09:25;0.50;99.90
4985;DHT22;2509;49.902;8.600;2023-03-12T03:12:28;0.50;99.90
4985;DHT22;2509;49.902;8.600;2023-03-12T03:15:29;0.50;99.90
4985;DHT22;2509;49.902;8.600;2023-03-12T03:18:31;0.60;99.90
4985;DHT22;2509;49.902;8.600;2023-03-12T03:21:33;0.60;99.90
4985;DHT22;2509;49.902;8.600;2023-03-12T03:24:35;0.60;99.90
4985;DHT22;2509;49.902;8.600;2023-03-12T03:27:38;0.70;99.90
4985;DHT22;2509;49.902;8.600;2023-03-12T03:30:40;0.60;99.90
4985;DHT22;2509;49.902;8.600;2023-03-12T03:33:43;0.50;99.90
4985;DHT22;2509;49.902;8.600;2023-03-12T03:36:45;0.40;99.90
4985;DHT22;2509;49.902;8.600;2023-03-12T03:39:46;0.40;99.90
4985;DHT22;2509;49.902;8.600;2023-03-12T03:42:49;0.40;99.90
4985;DHT22;2509;49.902;8.600;2023-03-12T03:45:56;0.40;99.90
4985;DHT22;2509;49.902;8.600;2023-03-12T03:48:58;0.50;99.90
4985;DHT22;2509;49.902;8.600;2023-03-12T03:52:00;0.60;99.90
4985;DHT22;2509;49.902;8.600;2023-03-12T03:55:01;0.70;99.90
4985;DHT22;2509;49.902;8.600;2023-03-12T03:58:05;0.70;99.90
4985;DHT22;2509;49.902;8.600;2023-03-12T04:01:08;0.80;99.90
4985;DHT22;2509;49.902;8.600;2023-03-12T04:04:09;0.80;99.90
4985;DHT22;2509;49.902;8.600;2023-03-12T04:07:11;0.80;99.90
4985;DHT22;2509;49.902;8.600;2023-03-12T04:10:13;0.80;99.90
4985;DHT22;2509;49.902;8.600;2023-03-12T04:13:17;0.70;99.90
4985;DHT22;2509;49.902;8.600;2023-03-12T04:16:19;0.80;99.90
4985;DHT22;2509;49.902;8.600;2023-03-12T04:19:21;0.80;99.90
4985;DHT22;2509;49.902;8.600;2023-03-12T04:22:23;0.80;99.90
4985;DHT22;2509;49.902;8.600;2023-03-12T04:25:24;0.80;99.90
4985;DHT22;2509;49.902;8.600;2023-03-12T04:28:28;0.80;99.90
4985;DHT22;2509;49.902;8.600;2023-03-12T04:31:29;0.80;99.90
4985;DHT22;2509;49.902;8.600;2023-03-12T04:34:31;0.80;99.90
4985;DHT22;2509;49.902;8.600;2023-03-12T04:37:33;0.80;99.90
4985;DHT22;2509;49.902;8.600;2023-03-12T04:40:35;0.90;99.90
4985;DHT22;2509;49.902;8.600;2023-03-12T04:43:38;0.90;99.90
4985;DHT22;2509;49.902;8.600;2023-03-12T04:46:41;0.90;99.90
4985;DHT22;2509;49.902;8.600;2023-03-12T04:49:43;0.90;99.90
4985;DHT22;2509;49.902;8.600;2023-03-12T04:52:45;0.90;99.90
4985;DHT22;2509;49.902;8.600;2023-03-12T04:55:47;0.90;99.90
4985;DHT22;2509;49.902;8.600;2023-03-12T04:58:51;0.90;99.90
4985;DHT22;2509;49.902;8.600;2023-03-12T05:01:52;0.90;99.90
4985;DHT22;2509;49.902;8.600;2023-03-12T05:04:55;0.90;99.90
4985;DHT22;2509;49.902;8.600;2023-03-12T05:07:57;0.90;99.90
4985;DHT22;2509;49.902;8.600;2023-03-12T05:10:59;0.90;99.90
4985;DHT22;2509;49.902;8.600;2023-03-12T05:14:02;1.00;99.90
4985;DHT22;2509;49.902;8.600;2023-03-12T05:17:04;1.10;99.90
4985;DHT22;2509;49.902;8.600;2023-03-12T05:20:08;1.10;99.90
4985;DHT22;2509;49.902;8.600;2023-03-12T05:23:10;1.10;99.90
4985;DHT22;2509;49.902;8.600;2023-03-12T05:26:16;1.10;99.90
4985;DHT22;2509;49.902;8.600;2023-03-12T05:29:20;1.20;99.90
4985;DHT22;2509;49.902;8.600;2023-03-12T05:32:22;1.20;99.90
4985;DHT22;2509;49.902;8.600;2023-03-12T05:35:23;1.20;99.90
4985;DHT22;2509;49.902;8.600;2023-03-12T05:38:25;1.20;99.90
4985;DHT22;2509;49.902;8.600;2023-03-12T05:41:28;1.20;99.90
4985;DHT22;2509;49.902;8.600;2023-03-12T05:44:31;1.20;99.90
4985;DHT22;2509;49.902;8.600;2023-03-12T05:47:34;1.30;99.90
4985;DHT22;2509;49.902;8.600;2023-03-12T05:50:36;1.30;99.90
4985;DHT22;2509;49.902;8.600;2023-03-12T05:53:38;1.30;99.90
4985;DHT22;2509;49.902;8.600;2023-03-12T05:56:40;1.30;99.90
4985;DHT22;2509;49.902;8.600;2023-03-12T05:59:43;1.30;99.90
4985;DHT22;2509;49.902;8.600;2023-03-12T06:02:45;1.40;99.90
4985;DHT22;2509;49.902;8.600;2023-03-12T06:05:47;1.40;99.90
4985;DHT22;2509;49.902;8.600;2023-03-12T06:08:49;1.40;99.90
4985;DHT22;2509;49.902;8.600;2023-03-12T06:11:51;1.30;99.90
4985;DHT22;2509;49.902;8.600;2023-03-12T06:14:56;1.20;99.90
4985;DHT22;2509;49.902;8.600;2023-03-12T06:17:58;1.30;99.90
4985;DHT22;2509;49.902;8.600;2023-03-12T06:21:11;1.40;99.90
4985;DHT22;2509;49.902;8.600;2023-03-12T06:24:13;1.50;99.90
4985;DHT22;2509;49.902;8.600;2023-03-12T06:27:14;1.50;99.90
4985;DHT22;2509;49.902;8.600;2023-03-12T06:30:18;1.60;99.90
4985;DHT22;2509;49.902;8.600;2023-03-12T06:33:20;1.60;99.90
4985;DHT22;2509;49.902;8.600;2023-03-12T06:36:21;1.60;99.90
4985;DHT22;2509;49.902;8.600;2023-03-12T06:39:24;1.60;99.90
4985;DHT22;2509;49.902;8.600;2023-03-12T06:42:26;1.70;99.90
4985;DHT22;2509;49.902;8.600;2023-03-12T06:45:29;1.70;99.90
4985;DHT22;2509;49.902;8.600;2023-03-12T06:48:32;1.70;99.90
4985;DHT22;2509;49.902;8.600;2023-03-12T06:51:36;1.70;99.90
4985;DHT22;2509;49.902;8.600;2023-03-12T06:54:38;1.70;99.90
4985;DHT22;2509;49.902;8.600;2023-03-12T06:57:40;1.70;99.90
4985;DHT22;2509;49.902;8.600;2023-03-12T07:00:43;1.70;99.90
4985;DHT22;2509;49.902;8.600;2023-03-12T07:03:45;1.80;99.90
4985;DHT22;2509;49.902;8.600;2023-03-12T07:06:47;1.80;99.90
4985;DHT22;2509;49.902;8.600;2023-03-12T07:09:50;1.80;99.90
4985;DHT22;2509;49.902;8.600;2023-03-12T07:12:52;1.80;99.90
4985;DHT22;2509;49.902;8.600;2023-03-12T07:15:55;1.80;99.90
4985;DHT22;2509;49.902;8.600;2023-03-12T07:18:57;1.80;99.90
4985;DHT22;2509;49.902;8.600;2023-03-12T07:21:59;1.90;99.90
4985;DHT22;2509;49.902;8.600;2023-03-12T07:25:01;1.90;99.90
4985;DHT22;2509;49.902;8.600;2023-03-12T07:28:04;2.00;99.90
4985;DHT22;2509;49.902;8.600;2023-03-12T07:31:07;2.00;99.90
4985;DHT22;2509;49.902;8.600;2023-03-12T07:34:09;2.00;99.90
4985;DHT22;2509;49.902;8.600;2023-03-12T07:37:11;2.00;99.90
4985;DHT22;2509;49.902;8.600;2023-03-12T07:40:13;2.00;99.90
4985;DHT22;2509;49.902;8.600;2023-03-12T07:43:14;2.00;99.90
4985;DHT22;2509;49.902;8.600;2023-03-12T07:46:17;2.00;99.90
4985;DHT22;2509;49.902;8.600;2023-03-12T07:49:19;2.00;99.90
4985;DHT22;2509;49.902;8.600;2023-03-12T07:52:21;2.10;99.90
4985;DHT22;2509;49.902;8.600;2023-03-12T07:55:23;2.10;99.90
4985;DHT22;2509;49.902;8.600;2023-03-12T07:58:25;2.10;99.90
4985;DHT22;2509;49.902;8.600;2023-03-12T08:01:28;2.20;99.90
4985;DHT22;2509;49.902;8.600;2023-03-12T08:04:31;2.20;99.90
4985;DHT22;2509;49.902;8.600;2023-03-12T08:07:34;2.20;99.90
4985;DHT22;2509;49.902;8.600;2023-03-12T08:10:36;2.20;99.90
4985;DHT22;2509;49.902;8.600;2023-03-12T08:13:37;2.10;99.90
4985;DHT22;2509;49.902;8.600;2023-03-12T08:16:40;2.00;99.90
4985;DHT22;2509;49.902;8.600;2023-03-12T08:19:42;2.00;99.90
4985;DHT22;2509;49.902;8.600;2023-03-12T08:22:44;1.90;99.90
4985;DHT22;2509;49.902;8.600;2023-03-12T08:25:46;2.00;99.90
4985;DHT22;2509;49.902;8.600;2023-03-12T08:28:48;2.00;99.90
4985;DHT22;2509;49.902;8.600;2023-03-12T08:31:51;2.00;99.90
4985;DHT22;2509;49.902;8.600;2023-03-12T08:34:53;2.10;99.90
4985;DHT22;2509;49.902;8.600;2023-03-12T08:37:54;2.10;99.90
4985;DHT22;2509;49.902;8.600;2023-03-12T08:40:57;2.10;99.90
4985;DHT22;2509;49.902;8.600;2023-03-12T08:43:59;2.10;99.90
4985;DHT22;2509;49.902;8.600;2023-03-12T08:47:03;2.20;99.90
4985;DHT22;2509;49.902;8.600;2023-03-12T08:50:05;2.20;99.90
4985;DHT22;2509;49.902;8.600;2023-03-12T08:53:07;2.20;99.90
4985;DHT22;2509;49.902;8.600;2023-03-12T08:56:09;2.30;99.90
4985;DHT22;2509;49.902;8.600;2023-03-12T08:59:12;2.40;99.90
4985;DHT22;2509;49.902;8.600;2023-03-12T09:02:15;2.40;99.90
4985;DHT22;2509;49.902;8.600;2023-03-12T09:05:17;2.50;99.90
4985;DHT22;2509;49.902;8.600;2023-03-12T09:08:20;2.50;99.90
4985;DHT22;2509;49.902;8.600;2023-03-12T09:11:21;2.50;99.90
4985;DHT22;2509;49.902;8.600;2023-03-12T09:14:23;2.60;99.90
4985;DHT22;2509;49.902;8.600;2023-03-12T09:17:27;2.60;99.90
4985;DHT22;2509;49.902;8.600;2023-03-12T09:20:29;2.80;99.90
4985;DHT22;2509;49.902;8.600;2023-03-12T09:23:31;2.70;99.90
4985;DHT22;2509;49.902;8.600;2023-03-12T09:26:33;2.80;99.90
4985;DHT22;2509;49.902;8.600;2023-03-12T09:29:35;2.80;99.90
4985;DHT22;2509;49.902;8.600;2023-03-12T09:32:38;2.80;99.90
4985;DHT22;2509;49.902;8.600;2023-03-12T09:35:40;2.90;99.90
4985;DHT22;2509;49.902;8.600;2023-03-12T09:38:41;2.90;99.90
4985;DHT22;2509;49.902;8.600;2023-03-12T09:41:45;3.00;99.90
4985;DHT22;2509;49.902;8.600;2023-03-12T09:44:49;3.10;99.90
4985;DHT22;2509;49.902;8.600;2023-03-12T09:47:56;3.20;99.90
4985;DHT22;2509;49.902;8.600;2023-03-12T09:51:01;3.30;99.90
4985;DHT22;2509;49.902;8.600;2023-03-12T09:54:06;3.40;99.90
4985;DHT22;2509;49.902;8.600;2023-03-12T09:57:21;3.50;99.90
4985;DHT22;2509;49.902;8.600;2023-03-12T10:00:28;3.60;99.90
4985;DHT22;2509;49.902;8.600;2023-03-12T10:03:50;3.70;99.90
4985;DHT22;2509;49.902;8.600;2023-03-12T10:07:00;3.70;99.90
4985;DHT22;2509;49.902;8.600;2023-03-12T10:10:25;3.80;99.90
4985;DHT22;2509;49.902;8.600;2023-03-12T10:17:03;3.80;99.90
4985;DHT22;2509;49.902;8.600;2023-03-12T10:20:24;3.90;99.90
4985;DHT22;2509;49.902;8.600;2023-03-12T10:23:37;4.00;99.90
4985;DHT22;2509;49.902;8.600;2023-03-12T10:26:43;4.10;99.90
4985;DHT22;2509;49.902;8.600;2023-03-12T10:29:48;4.20;99.90
4985;DHT22;2509;49.902;8.600;2023-03-12T10:32:53;4.20;99.90
4985;DHT22;2509;49.902;8.600;2023-03-12T10:35:57;4.20;99.90
4985;DHT22;2509;49.902;8.600;2023-03-12T10:38:59;4.40;99.90
4985;DHT22;2509;49.902;8.600;2023-03-12T10:42:01;4.40;99.90
4985;DHT22;2509;49.902;8.600;2023-03-12T10:45:15;4.40;99.90
4985;DHT22;2509;49.902;8.600;2023-03-12T10:48:26;4.40;99.90
4985;DHT22;2509;49.902;8.600;2023-03-12T10:51:29;4.50;99.90
4985;DHT22;2509;49.902;8.600;2023-03-12T10:54:34;4.50;99.90
4985;DHT22;2509;49.902;8.600;2023-03-12T10:57:39;4.60;99.90
4985;DHT22;2509;49.902;8.600;2023-03-12T11:00:53;4.80;99.90
4985;DHT22;2509;49.902;8.600;2023-03-12T11:04:08;5.00;99.90
4985;DHT22;2509;49.902;8.600;2023-03-12T11:07:18;5.00;99.90
4985;DHT22;2509;49.902;8.600;2023-03-12T11:10:25;5.10;99.90
4985;DHT22;2509;49.902;8.600;2023-03-12T11:13:30;5.20;99.90
4985;DHT22;2509;49.902;8.600;2023-03-12T11:16:32;5.30;99.90
4985;DHT22;2509;49.902;8.600;2023-03-12T11:19:34;5.30;99.90
4985;DHT22;2509;49.902;8.600;2023-03-12T11:22:37;5.40;99.90
4985;DHT22;2509;49.902;8.600;2023-03-12T11:25:39;5.50;99.90
4985;DHT22;2509;49.902;8.600;2023-03-12T11:28:43;5.50;99.90
4985;DHT22;2509;49.902;8.600;2023-03-12T11:31:51;5.50;99.90
4985;DHT22;2509;49.902;8.600;2023-03-12T11:34:56;5.60;99.90
4985;DHT22;2509;49.902;8.600;2023-03-12T11:38:02;5.60;99.90
4985;DHT22;2509;49.902;8.600;2023-03-12T11:41:28;5.60;99.90
4985;DHT22;2509;49.902;8.600;2023-03-12T11:44:41;5.80;99.90
4985;DHT22;2509;49.902;8.600;2023-03-12T11:48:04;5.90;99.90
4985;DHT22;2509;49.902;8.600;2023-03-12T11:51:16;6.20;99.90
4985;DHT22;2509;49.902;8.600;2023-03-12T11:54:34;6.40;99.90
4985;DHT22;2509;49.902;8.600;2023-03-12T11:57:48;6.40;99.90
4985;DHT22;2509;49.902;8.600;2023-03-12T12:00:56;6.50;99.90
4985;DHT22;2509;49.902;8.600;2023-03-12T12:04:16;6.40;99.90
4985;DHT22;2509;49.902;8.600;2023-03-12T12:07:33;6.40;99.90
4985;DHT22;2509;49.902;8.600;2023-03-12T12:10:46;6.50;99.90
4985;DHT22;2509;49.902;8.600;2023-03-12T12:14:00;6.60;99.90
4985;DHT22;2509;49.902;8.600;2023-03-12T12:17:09;6.80;99.90
4985;DHT22;2509;49.902;8.600;2023-03-12T12:20:20;7.10;99.90
4985;DHT22;2509;49.902;8.600;2023-03-12T12:23:38;7.40;99.90
4985;DHT22;2509;49.902;8.600;2023-03-12T12:26:46;7.40;99.90
4985;DHT22;2509;49.902;8.600;2023-03-12T12:30:12;7.50;99.90
4985;DHT22;2509;49.902;8.600;2023-03-12T12:33:29;7.60;99.90
4985;DHT22;2509;49.902;8.600;2023-03-12T12:37:00;7.60;99.90
4985;DHT22;2509;49.902;8.600;2023-03-12T12:40:15;7.80;99.90
4985;DHT22;2509;49.902;8.600;2023-03-12T12:43:37;8.00;99.90
4985;DHT22;2509;49.902;8.600;2023-03-12T12:46:43;8.00;99.90
4985;DHT22;2509;49.902;8.600;2023-03-12T12:49:57;8.00;99.90
4985;DHT22;2509;49.902;8.600;2023-03-12T12:53:07;7.90;99.90
4985;DHT22;2509;49.902;8.600;2023-03-12T12:56:21;7.90;99.90
4985;DHT22;2509;49.902;8.600;2023-03-12T12:59:32;7.90;99.90
4985;DHT22;2509;49.902;8.600;2023-03-12T13:02:38;7.90;99.90
4985;DHT22;2509;49.902;8.600;2023-03-12T13:05:45;7.90;99.90
4985;DHT22;2509;49.902;8.600;2023-03-12T13:09:13;8.00;99.90
4985;DHT22;2509;49.902;8.600;2023-03-12T13:12:24;8.10;99.90
4985;DHT22;2509;49.902;8.600;2023-03-12T13:15:36;8.20;99.90
4985;DHT22;2509;49.902;8.600;2023-03-12T13:18:40;8.20;99.90
4985;DHT22;2509;49.902;8.600;2023-03-12T13:21:51;8.30;99.90
4985;DHT22;2509;49.902;8.600;2023-03-12T13:25:03;8.40;99.90
4985;DHT22;2509;49.902;8.600;2023-03-12T13:28:29;8.50;99.90
4985;DHT22;2509;49.902;8.600;2023-03-12T13:31:39;8.60;99.90
4985;DHT22;2509;49.902;8.600;2023-03-12T13:34:43;8.60;99.90
4985;DHT22;2509;49.902;8.600;2023-03-12T13:38:00;8.70;99.90
4985;DHT22;2509;49.902;8.600;2023-03-12T13:41:06;8.80;99.90
4985;DHT22;2509;49.902;8.600;2023-03-12T13:44:30;8.90;99.90
4985;DHT22;2509;49.902;8.600;2023-03-12T13:47:40;9.10;99.90
4985;DHT22;2509;49.902;8.600;2023-03-12T13:50:50;9.30;99.90
4985;DHT22;2509;49.902;8.600;2023-03-12T13:53:57;9.40;99.90
4985;DHT22;2509;49.902;8.600;2023-03-12T13:57:02;9.60;99.90
4985;DHT22;2509;49.902;8.600;2023-03-12T14:00:13;9.80;99.90
4985;DHT22;2509;49.902;8.600;2023-03-12T14:03:19;10.10;99.90
4985;DHT22;2509;49.902;8.600;2023-03-12T14:06:23;10.60;99.90
4985;DHT22;2509;49.902;8.600;2023-03-12T14:09:33;10.80;99.90
4985;DHT22;2509;49.902;8.600;2023-03-12T14:12:44;10.80;99.90
4985;DHT22;2509;49.902;8.600;2023-03-12T14:15:53;10.70;99.90
4985;DHT22;2509;49.902;8.600;2023-03-12T14:19:01;10.60;99.90
4985;DHT22;2509;49.902;8.600;2023-03-12T14:22:05;10.50;99.90
4985;DHT22;2509;49.902;8.600;2023-03-12T14:25:13;10.50;99.90
4985;DHT22;2509;49.902;8.600;2023-03-12T14:28:18;10.40;99.90
4985;DHT22;2509;49.902;8.600;2023-03-12T14:31:22;10.50;99.90
4985;DHT22;2509;49.902;8.600;2023-03-12T14:34:27;10.50;99.90
4985;DHT22;2509;49.902;8.600;2023-03-12T14:37:35;10.60;99.90
4985;DHT22;2509;49.902;8.600;2023-03-12T14:40:41;10.70;99.90
4985;DHT22;2509;49.902;8.600;2023-03-12T14:43:52;10.90;99.90
4985;DHT22;2509;49.902;8.600;2023-03-12T14:46:59;10.90;99.90
4985;DHT22;2509;49.902;8.600;2023-03-12T14:50:04;10.90;99.90
4985;DHT22;2509;49.902;8.600;2023-03-12T14:53:12;10.90;99.90
4985;DHT22;2509;49.902;8.600;2023-03-12T14:56:23;10.90;99.90
4985;DHT22;2509;49.902;8.600;2023-03-12T14:59:30;10.90;99.90
4985;DHT22;2509;49.902;8.600;2023-03-12T15:02:40;10.90;99.90
4985;DHT22;2509;49.902;8.600;2023-03-12T15:05:46;10.90;99.90
4985;DHT22;2509;49.902;8.600;2023-03-12T15:08:49;10.80;99.90
4985;DHT22;2509;49.902;8.600;2023-03-12T15:11:53;10.90;99.90
4985;DHT22;2509;49.902;8.600;2023-03-12T15:15:01;10.90;99.90
4985;DHT22;2509;49.902;8.600;2023-03-12T15:18:05;10.90;99.90
4985;DHT22;2509;49.902;8.600;2023-03-12T15:21:10;11.00;99.90
4985;DHT22;2509;49.902;8.600;2023-03-12T15:24:14;11.10;99.90
4985;DHT22;2509;49.902;8.600;2023-03-12T15:27:21;11.20;99.90
4985;DHT22;2509;49.902;8.600;2023-03-12T15:30:31;11.30;99.90
4985;DHT22;2509;49.902;8.600;2023-03-12T15:33:34;11.40;99.90
4985;DHT22;2509;49.902;8.600;2023-03-12T15:36:44;11.40;99.90
4985;DHT22;2509;49.902;8.600;2023-03-12T15:43:17;11.40;99.90
4985;DHT22;2509;49.902;8.600;2023-03-12T15:46:28;11.50;99.90
4985;DHT22;2509;49.902;8.600;2023-03-12T15:49:33;11.40;99.90
4985;DHT22;2509;49.902;8.600;2023-03-12T15:52:39;11.40;99.90
4985;DHT22;2509;49.902;8.600;2023-03-12T15:55:54;11.40;99.90
4985;DHT22;2509;49.902;8.600;2023-03-12T16:02:33;11.50;99.90
4985;DHT22;2509;49.902;8.600;2023-03-12T16:05:37;11.50;99.90
4985;DHT22;2509;49.902;8.600;2023-03-12T16:08:44;11.40;99.90
4985;DHT22;2509;49.902;8.600;2023-03-12T16:11:47;11.50;99.90
4985;DHT22;2509;49.902;8.600;2023-03-12T16:14:52;11.60;99.90
4985;DHT22;2509;49.902;8.600;2023-03-12T16:18:01;11.70;99.90
4985;DHT22;2509;49.902;8.600;2023-03-12T16:21:03;11.70;99.90
4985;DHT22;2509;49.902;8.600;2023-03-12T16:24:07;11.70;99.90
4985;DHT22;2509;49.902;8.600;2023-03-12T16:27:13;11.80;99.90
4985;DHT22;2509;49.902;8.600;2023-03-12T16:30:22;11.70;99.90
4985;DHT22;2509;49.902;8.600;2023-03-12T16:33:24;11.80;99.90
4985;DHT22;2509;49.902;8.600;2023-03-12T16:36:26;11.80;99.90
4985;DHT22;2509;49.902;8.600;2023-03-12T16:39:30;11.70;99.90
4985;DHT22;2509;49.902;8.600;2023-03-12T16:42:32;11.70;99.90
4985;DHT22;2509;49.902;8.600;2023-03-12T16:46:03;11.70;99.90
4985;DHT22;2509;49.902;8.600;2023-03-12T16:49:13;11.60;99.90
4985;DHT22;2509;49.902;8.600;2023-03-12T16:52:21;11.60;99.90
4985;DHT22;2509;49.902;8.600;2023-03-12T16:55:35;11.60;99.90
4985;DHT22;2509;49.902;8.600;2023-03-12T16:58:46;11.50;99.90
4985;DHT22;2509;49.902;8.600;2023-03-12T17:01:49;11.40;99.90
4985;DHT22;2509;49.902;8.600;2023-03-12T17:04:51;11.40;99.90
4985;DHT22;2509;49.902;8.600;2023-03-12T17:07:53;11.40;99.90
4985;DHT22;2509;49.902;8.600;2023-03-12T17:11:05;11.40;99.90
4985;DHT22;2509;49.902;8.600;2023-03-12T17:14:15;11.40;99.90
4985;DHT22;2509;49.902;8.600;2023-03-12T17:17:18;11.40;99.90
4985;DHT22;2509;49.902;8.600;2023-03-12T17:20:23;11.30;99.90
4985;DHT22;2509;49.902;8.600;2023-03-12T17:23:35;11.30;99.90
4985;DHT22;2509;49.902;8.600;2023-03-12T17:26:42;11.20;99.90
4985;DHT22;2509;49.902;8.600;2023-03-12T17:29:48;11.30;99.90
4985;DHT22;2509;49.902;8.600;2023-03-12T17:32:52;11.20;99.90
4985;DHT22;2509;49.902;8.600;2023-03-12T17:36:01;11.20;99.90
4985;DHT22;2509;49.902;8.600;2023-03-12T17:39:06;11.20;99.90
4985;DHT22;2509;49.902;8.600;2023-03-12T17:42:27;11.10;99.90
4985;DHT22;2509;49.902;8.600;2023-03-12T17:45:48;11.10;99.90
4985;DHT22;2509;49.902;8.600;2023-03-12T17:49:11;11.10;99.90
4985;DHT22;2509;49.902;8.600;2023-03-12T17:52:29;11.00;99.90
4985;DHT22;2509;49.902;8.600;2023-03-12T17:55:50;11.00;99.90
4985;DHT22;2509;49.902;8.600;2023-03-12T17:58:54;11.00;99.90
4985;DHT22;2509;49.902;8.600;2023-03-12T18:02:01;11.00;99.90
4985;DHT22;2509;49.902;8.600;2023-03-12T18:05:11;10.90;99.90
4985;DHT22;2509;49.902;8.600;2023-03-12T18:08:49;11.00;99.90
4985;DHT22;2509;49.902;8.600;2023-03-12T18:12:17;11.00;99.90
4985;DHT22;2509;49.902;8.600;2023-03-12T18:15:33;11.00;99.90
4985;DHT22;2509;49.902;8.600;2023-03-12T18:18:40;10.90;99.90
4985;DHT22;2509;49.902;8.600;2023-03-12T18:22:36;10.90;99.90
4985;DHT22;2509;49.902;8.600;2023-03-12T18:25:50;10.90;99.90
4985;DHT22;2509;49.902;8.600;2023-03-12T18:29:02;10.90;99.90
4985;DHT22;2509;49.902;8.600;2023-03-12T18:32:32;10.90;99.90
4985;DHT22;2509;49.902;8.600;2023-03-12T18:35:48;10.90;99.90
4985;DHT22;2509;49.902;8.600;2023-03-12T18:39:04;10.80;99.90
4985;DHT22;2509;49.902;8.600;2023-03-12T18:42:07;10.90;99.90
4985;DHT22;2509;49.902;8.600;2023-03-12T18:45:20;10.90;99.90
4985;DHT22;2509;49.902;8.600;2023-03-12T18:48:30;10.80;99.90
4985;DHT22;2509;49.902;8.600;2023-03-12T18:51:45;10.80;99.90
4985;DHT22;2509;49.902;8.600;2023-03-12T18:54:56;10.80;99.90
4985;DHT22;2509;49.902;8.600;2023-03-12T18:58:18;10.80;99.90
4985;DHT22;2509;49.902;8.600;2023-03-12T19:01:23;10.80;99.90
4985;DHT22;2509;49.902;8.600;2023-03-12T19:04:26;10.80;99.90
4985;DHT22;2509;49.902;8.600;2023-03-12T19:07:28;10.80;99.90
4985;DHT22;2509;49.902;8.600;2023-03-12T19:10:31;10.80;99.90
4985;DHT22;2509;49.902;8.600;2023-03-12T19:13:33;10.80;99.90
4985;DHT22;2509;49.902;8.600;2023-03-12T19:16:34;10.80;99.90
4985;DHT22;2509;49.902;8.600;2023-03-12T19:19:37;10.70;99.90
4985;DHT22;2509;49.902;8.600;2023-03-12T19:22:39;10.70;99.90
4985;DHT22;2509;49.902;8.600;2023-03-12T19:25:43;10.70;99.90
4985;DHT22;2509;49.902;8.600;2023-03-12T19:28:45;10.60;99.90
4985;DHT22;2509;49.902;8.600;2023-03-12T19:31:47;10.70;99.90
4985;DHT22;2509;49.902;8.600;2023-03-12T19:34:50;10.60;99.90
4985;DHT22;2509;49.902;8.600;2023-03-12T19:37:52;10.60;99.90
4985;DHT22;2509;49.902;8.600;2023-03-12T19:40:57;10.50;99.90
4985;DHT22;2509;49.902;8.600;2023-03-12T19:43:59;10.50;99.90
4985;DHT22;2509;49.902;8.600;2023-03-12T19:47:00;10.60;99.90
4985;DHT22;2509;49.902;8.600;2023-03-12T19:50:07;10.60;99.90
4985;DHT22;2509;49.902;8.600;2023-03-12T19:53:09;10.60;99.90
4985;DHT22;2509;49.902;8.600;2023-03-12T19:56:11;10.60;99.90
4985;DHT22;2509;49.902;8.600;2023-03-12T19:59:13;10.60;99.90
4985;DHT22;2509;49.902;8.600;2023-03-12T20:02:15;10.60;99.90
4985;DHT22;2509;49.902;8.600;2023-03-12T20:05:19;10.60;99.90
4985;DHT22;2509;49.902;8.600;2023-03-12T20:08:20;10.70;99.90
4985;DHT22;2509;49.902;8.600;2023-03-12T20:11:25;10.70;99.90
4985;DHT22;2509;49.902;8.600;2023-03-12T20:14:27;10.60;99.90
4985;DHT22;2509;49.902;8.600;2023-03-12T20:17:28;10.60;99.90
4985;DHT22;2509;49.902;8.600;2023-03-12T20:20:32;10.50;99.90
4985;DHT22;2509;49.902;8.600;2023-03-12T20:23:33;10.40;99.90
4985;DHT22;2509;49.902;8.600;2023-03-12T20:26:35;10.40;99.90
4985;DHT22;2509;49.902;8.600;2023-03-12T20:29:38;10.40;99.90
4985;DHT22;2509;49.902;8.600;2023-03-12T20:32:42;10.40;99.90
4985;DHT22;2509;49.902;8.600;2023-03-12T20:35:45;10.40;99.90